sensor_id;sensor_type;location;lat;lon;timestamp;pressure;altitude;pressure_sealevel;temperature;humidity
19590;BME280;12231;42.782;23.388;2023-04-08T00:00:40;95703.97;;;6.09;92.47
19590;BME280;12231;42.782;23.388;2023-04-08T00:03:06;95699.00;;;6.06;91.87
19590;BME280;12231;42.782;23.388;2023-04-08T00:05:33;95701.53;;;6.06;91.70
19590;BME280;12231;42.782;23.388;2023-04-08T00:07:58;95707.66;;;6.02;91.66
19590;BME280;12231;42.782;23.388;2023-04-08T00:10:24;95704.16;;;6.04;91.23
19590;BME280;12231;42.782;23.388;2023-04-08T00:12:50;95699.00;;;6.06;91.13
19590;BME280;12231;42.782;23.388;2023-04-08T00:15:16;95704.94;;;6.06;91.02
19590;BME280;12231;42.782;23.388;2023-04-08T00:17:41;95705.75;;;6.07;90.76
19590;BME280;12231;42.782;23.388;2023-04-08T00:20:07;95705.00;;;6.05;90.39
19590;BME280;12231;42.782;23.388;2023-04-08T00:22:34;95704.09;;;6.06;89.93
19590;BME280;12231;42.782;23.388;2023-04-08T00:25:00;95704.81;;;6.09;89.43
19590;BME280;12231;42.782;23.388;2023-04-08T00:27:27;95700.41;;;6.13;89.29
19590;BME280;12231;42.782;23.388;2023-04-08T00:29:52;95702.00;;;6.15;88.83
19590;BME280;12231;42.782;23.388;2023-04-08T00:32:17;95704.75;;;6.11;88.40
19590;BME280;12231;42.782;23.388;2023-04-08T00:34:43;95708.09;;;6.13;88.28
19590;BME280;12231;42.782;23.388;2023-04-08T00:37:09;95704.38;;;6.00;88.76
19590;BME280;12231;42.782;23.388;2023-04-08T00:39:36;95699.28;;;5.77;89.31
19590;BME280;12231;42.782;23.388;2023-04-08T00:42:01;95702.16;;;5.69;90.84
19590;BME280;12231;42.782;23.388;2023-04-08T00:44:27;95703.41;;;5.59;92.65
19590;BME280;12231;42.782;23.388;2023-04-08T00:46:52;95715.78;;;5.46;95.62
19590;BME280;12231;42.782;23.388;2023-04-08T00:49:18;95715.59;;;5.52;95.94
19590;BME280;12231;42.782;23.388;2023-04-08T00:51:44;95716.41;;;5.53;96.57
19590;BME280;12231;42.782;23.388;2023-04-08T00:54:09;95711.00;;;5.60;97.30
19590;BME280;12231;42.782;23.388;2023-04-08T00:56:35;95719.19;;;5.47;98.90
19590;BME280;12231;42.782;23.388;2023-04-08T00:59:02;95727.88;;;5.43;99.99
19590;BME280;12231;42.782;23.388;2023-04-08T01:07:09;95721.09;;;5.42;100.00
19590;BME280;12231;42.782;23.388;2023-04-08T01:09:38;95720.97;;;5.45;100.00
19590;BME280;12231;42.782;23.388;2023-04-08T01:12:08;95724.44;;;5.44;100.00
19590;BME280;12231;42.782;23.388;2023-04-08T01:14:39;95717.22;;;5.53;100.00
19590;BME280;12231;42.782;23.388;2023-04-08T01:17:07;95718.84;;;5.34;100.00
19590;BME280;12231;42.782;23.388;2023-04-08T01:19:37;95719.09;;;5.27;100.00
19590;BME280;12231;42.782;23.388;2023-04-08T01:22:15;95720.97;;;5.45;100.00
19590;BME280;12231;42.782;23.388;2023-04-08T01:24:44;95715.84;;;5.23;100.00
19590;BME280;12231;42.782;23.388;2023-04-08T01:27:13;95717.63;;;5.21;100.00
19590;BME280;12231;42.782;23.388;2023-04-08T01:29:39;95719.75;;;5.10;100.00
19590;BME280;12231;42.782;23.388;2023-04-08T01:32:06;95720.66;;;5.31;100.00
19590;BME280;12231;42.782;23.388;2023-04-08T01:34:34;95725.06;;;5.27;100.00
19590;BME280;12231;42.782;23.388;2023-04-08T01:37:01;95721.72;;;5.25;100.00
19590;BME280;12231;42.782;23.388;2023-04-08T01:39:27;95723.81;;;5.37;100.00
19590;BME280;12231;42.782;23.388;2023-04-08T01:41:55;95725.84;;;5.06;100.00
19590;BME280;12231;42.782;23.388;2023-04-08T01:44:23;95715.56;;;5.31;100.00
19590;BME280;12231;42.782;23.388;2023-04-08T01:46:52;95718.47;;;5.43;100.00
19590;BME280;12231;42.782;23.388;2023-04-08T01:49:18;95713.97;;;5.50;100.00
19590;BME280;12231;42.782;23.388;2023-04-08T01:51:45;95724.66;;;5.59;100.00
19590;BME280;12231;42.782;23.388;2023-04-08T01:54:11;95718.56;;;5.63;100.00
19590;BME280;12231;42.782;23.388;2023-04-08T01:56:40;95718.44;;;5.67;100.00
19590;BME280;12231;42.782;23.388;2023-04-08T01:59:10;95720.16;;;5.66;100.00
19590;BME280;12231;42.782;23.388;2023-04-08T02:01:38;95720.00;;;5.71;100.00
19590;BME280;12231;42.782;23.388;2023-04-08T02:04:03;95731.81;;;5.73;100.00
19590;BME280;12231;42.782;23.388;2023-04-08T02:06:29;95733.16;;;5.60;100.00
19590;BME280;12231;42.782;23.388;2023-04-08T02:08:56;95731.59;;;5.57;100.00
19590;BME280;12231;42.782;23.388;2023-04-08T02:11:21;95741.81;;;5.57;100.00
19590;BME280;12231;42.782;23.388;2023-04-08T02:13:47;95747.84;;;5.55;100.00
19590;BME280;12231;42.782;23.388;2023-04-08T02:19:14;95752.72;;;5.61;100.00
19590;BME280;12231;42.782;23.388;2023-04-08T02:21:48;95743.03;;;5.47;100.00
19590;BME280;12231;42.782;23.388;2023-04-08T02:24:17;95746.84;;;5.59;100.00
19590;BME280;12231;42.782;23.388;2023-04-08T02:26:43;95752.63;;;5.64;100.00
19590;BME280;12231;42.782;23.388;2023-04-08T02:29:14;95747.66;;;5.59;100.00
19590;BME280;12231;42.782;23.388;2023-04-08T02:31:41;95752.41;;;5.47;100.00
19590;BME280;12231;42.782;23.388;2023-04-08T02:34:09;95754.09;;;5.48;100.00
19590;BME280;12231;42.782;23.388;2023-04-08T02:36:35;95750.41;;;5.55;100.00
19590;BME280;12231;42.782;23.388;2023-04-08T02:39:01;95748.81;;;5.52;100.00
19590;BME280;12231;42.782;23.388;2023-04-08T02:41:28;95752.69;;;5.63;100.00
19590;BME280;12231;42.782;23.388;2023-04-08T02:43:54;95741.31;;;5.70;100.00
19590;BME280;12231;42.782;23.388;2023-04-08T02:46:20;95750.56;;;5.74;100.00
19590;BME280;12231;42.782;23.388;2023-04-08T02:48:46;95741.97;;;5.75;100.00
19590;BME280;12231;42.782;23.388;2023-04-08T02:51:12;95742.63;;;5.80;100.00
19590;BME280;12231;42.782;23.388;2023-04-08T02:53:37;95737.59;;;5.78;100.00
19590;BME280;12231;42.782;23.388;2023-04-08T02:56:03;95746.31;;;5.73;100.00
19590;BME280;12231;42.782;23.388;2023-04-08T02:58:28;95748.88;;;5.73;100.00
19590;BME280;12231;42.782;23.388;2023-04-08T03:00:54;95747.03;;;5.76;100.00
19590;BME280;12231;42.782;23.388;2023-04-08T03:03:20;95745.38;;;5.75;100.00
19590;BME280;12231;42.782;23.388;2023-04-08T03:05:52;95740.19;;;5.77;100.00
19590;BME280;12231;42.782;23.388;2023-04-08T03:08:17;95741.97;;;5.75;100.00
19590;BME280;12231;42.782;23.388;2023-04-08T03:10:43;95747.03;;;5.76;100.00
19590;BME280;12231;42.782;23.388;2023-04-08T03:13:08;95742.56;;;5.81;100.00
19590;BME280;12231;42.782;23.388;2023-04-08T03:15:34;95740.84;;;5.82;100.00
19590;BME280;12231;42.782;23.388;2023-04-08T03:17:59;95745.25;;;5.78;100.00
19590;BME280;12231;42.782;23.388;2023-04-08T03:20:25;95734.19;;;5.78;100.00
19590;BME280;12231;42.782;23.388;2023-04-08T03:22:50;95732.34;;;5.81;100.00
19590;BME280;12231;42.782;23.388;2023-04-08T03:25:16;95729.84;;;5.80;100.00
19590;BME280;12231;42.782;23.388;2023-04-08T03:27:41;95736.56;;;5.84;100.00
19590;BME280;12231;42.782;23.388;2023-04-08T03:30:07;95733.94;;;5.85;100.00
19590;BME280;12231;42.782;23.388;2023-04-08T03:32:32;95739.78;;;5.89;100.00
19590;BME280;12231;42.782;23.388;2023-04-08T03:34:58;95738.88;;;5.90;100.00
19590;BME280;12231;42.782;23.388;2023-04-08T03:37:23;95737.84;;;5.94;100.00
19590;BME280;12231;42.782;23.388;2023-04-08T03:39:48;95735.94;;;5.99;99.86
19590;BME280;12231;42.782;23.388;2023-04-08T03:42:14;95738.56;;;5.97;99.80
19590;BME280;12231;42.782;23.388;2023-04-08T03:44:40;95746.03;;;6.02;99.66
19590;BME280;12231;42.782;23.388;2023-04-08T03:47:05;95747.84;;;6.00;99.55
19590;BME280;12231;42.782;23.388;2023-04-08T03:49:30;95748.13;;;5.92;99.87
19590;BME280;12231;42.782;23.388;2023-04-08T03:51:56;95742.19;;;5.92;100.00
19590;BME280;12231;42.782;23.388;2023-04-08T03:54:21;95746.59;;;5.88;100.00
19590;BME280;12231;42.782;23.388;2023-04-08T03:56:48;95749.53;;;5.78;100.00
19590;BME280;12231;42.782;23.388;2023-04-08T03:59:14;95748.81;;;5.74;100.00
19590;BME280;12231;42.782;23.388;2023-04-08T04:01:39;95744.28;;;5.81;100.00
19590;BME280;12231;42.782;23.388;2023-04-08T04:04:04;95736.63;;;5.81;100.00
19590;BME280;12231;42.782;23.388;2023-04-08T04:06:30;95735.88;;;5.79;100.00
19590;BME280;12231;42.782;23.388;2023-04-08T04:08:56;95736.63;;;5.81;100.00
19590;BME280;12231;42.782;23.388;2023-04-08T04:11:22;95738.28;;;5.83;100.00
19590;BME280;12231;42.782;23.388;2023-04-08T04:13:47;95736.44;;;5.87;100.00
19590;BME280;12231;42.782;23.388;2023-04-08T04:16:13;95733.94;;;5.85;100.00
19590;BME280;12231;42.782;23.388;2023-04-08T04:18:38;95737.31;;;5.86;100.00
19590;BME280;12231;42.782;23.388;2023-04-08T04:21:05;95740.63;;;5.88;100.00
19590;BME280;12231;42.782;23.388;2023-04-08T04:23:31;95747.19;;;5.95;100.00
19590;BME280;12231;42.782;23.388;2023-04-08T04:25:57;95751.34;;;5.97;100.00
19590;BME280;12231;42.782;23.388;2023-04-08T04:28:22;95753.72;;;6.02;100.00
19590;BME280;12231;42.782;23.388;2023-04-08T04:30:47;95764.84;;;6.01;100.00
19590;BME280;12231;42.782;23.388;2023-04-08T04:33:13;95764.78;;;6.02;100.00
19590;BME280;12231;42.782;23.388;2023-04-08T04:35:38;95762.28;;;6.01;100.00
19590;BME280;12231;42.782;23.388;2023-04-08T04:38:05;95772.00;;;5.93;99.18
19590;BME280;12231;42.782;23.388;2023-04-08T04:40:35;95762.28;;;6.01;99.04
19590;BME280;12231;42.782;23.388;2023-04-08T04:43:00;95763.91;;;6.03;97.98
19590;BME280;12231;42.782;23.388;2023-04-08T04:45:26;95767.28;;;6.04;97.81
19590;BME280;12231;42.782;23.388;2023-04-08T04:47:51;95760.38;;;6.06;97.15
19590;BME280;12231;42.782;23.388;2023-04-08T04:50:17;95765.38;;;6.09;96.53
19590;BME280;12231;42.782;23.388;2023-04-08T04:52:42;95762.34;;;5.99;95.90
19590;BME280;12231;42.782;23.388;2023-04-08T04:55:08;95766.41;;;6.05;95.50
19590;BME280;12231;42.782;23.388;2023-04-08T04:57:33;95764.44;;;6.11;94.70
19590;BME280;12231;42.782;23.388;2023-04-08T04:59:59;95762.94;;;6.06;95.13
19590;BME280;12231;42.782;23.388;2023-04-08T05:02:25;95760.72;;;6.18;94.72
19590;BME280;12231;42.782;23.388;2023-04-08T05:04:51;95763.75;;;6.28;94.09
19590;BME280;12231;42.782;23.388;2023-04-08T05:07:18;95766.06;;;6.34;93.36
19590;BME280;12231;42.782;23.388;2023-04-08T05:09:43;95769.44;;;6.34;92.94
19590;BME280;12231;42.782;23.388;2023-04-08T05:12:09;95770.22;;;6.36;92.78
19590;BME280;12231;42.782;23.388;2023-04-08T05:14:34;95769.94;;;6.44;92.91
19590;BME280;12231;42.782;23.388;2023-04-08T05:17:00;95766.13;;;6.52;92.30
19590;BME280;12231;42.782;23.388;2023-04-08T05:19:25;95761.53;;;6.60;92.03
19590;BME280;12231;42.782;23.388;2023-04-08T05:21:51;95761.09;;;6.71;91.74
19590;BME280;12231;42.782;23.388;2023-04-08T05:24:16;95756.41;;;6.80;91.63
19590;BME280;12231;42.782;23.388;2023-04-08T05:26:42;95767.09;;;6.90;90.64
19590;BME280;12231;42.782;23.388;2023-04-08T05:29:07;95768.78;;;6.91;89.46
19590;BME280;12231;42.782;23.388;2023-04-08T05:31:35;95764.03;;;6.82;88.59
19590;BME280;12231;42.782;23.388;2023-04-08T05:34:01;95774.84;;;7.09;88.46
19590;BME280;12231;42.782;23.388;2023-04-08T05:36:27;95773.97;;;7.28;88.51
19590;BME280;12231;42.782;23.388;2023-04-08T05:38:52;95756.44;;;7.38;87.51
19590;BME280;12231;42.782;23.388;2023-04-08T05:41:18;95757.63;;;7.68;87.47
19590;BME280;12231;42.782;23.388;2023-04-08T05:43:43;95765.78;;;7.76;86.41
19590;BME280;12231;42.782;23.388;2023-04-08T05:46:09;95769.69;;;7.66;86.73
19590;BME280;12231;42.782;23.388;2023-04-08T05:48:35;95772.16;;;7.86;84.92
19590;BME280;12231;42.782;23.388;2023-04-08T05:51:00;95774.63;;;8.24;83.61
19590;BME280;12231;42.782;23.388;2023-04-08T05:53:26;95770.03;;;8.65;82.71
19590;BME280;12231;42.782;23.388;2023-04-08T05:55:51;95769.38;;;8.62;80.00
19590;BME280;12231;42.782;23.388;2023-04-08T05:58:17;95775.22;;;9.15;79.10
19590;BME280;12231;42.782;23.388;2023-04-08T06:00:42;95754.41;;;10.89;86.41
19590;BME280;12231;42.782;23.388;2023-04-08T06:03:08;95760.06;;;11.09;79.36
19590;BME280;12231;42.782;23.388;2023-04-08T06:05:33;95762.56;;;11.25;72.83
19590;BME280;12231;42.782;23.388;2023-04-08T06:07:59;95753.81;;;11.28;69.24
19590;BME280;12231;42.782;23.388;2023-04-08T06:10:24;95750.50;;;11.40;68.04
19590;BME280;12231;42.782;23.388;2023-04-08T06:12:50;95753.06;;;11.54;67.71
19590;BME280;12231;42.782;23.388;2023-04-08T06:15:15;95756.56;;;11.11;67.10
19590;BME280;12231;42.782;23.388;2023-04-08T06:17:41;95761.97;;;10.33;69.59
19590;BME280;12231;42.782;23.388;2023-04-08T06:20:06;95759.41;;;10.02;70.92
19590;BME280;12231;42.782;23.388;2023-04-08T06:22:34;95759.72;;;9.96;74.25
19590;BME280;12231;42.782;23.388;2023-04-08T06:25:00;95752.91;;;9.79;75.48
19590;BME280;12231;42.782;23.388;2023-04-08T06:27:26;95747.28;;;9.72;75.64
19590;BME280;12231;42.782;23.388;2023-04-08T06:29:51;95753.19;;;9.26;78.44
19590;BME280;12231;42.782;23.388;2023-04-08T06:32:17;95758.81;;;9.17;77.96
19590;BME280;12231;42.782;23.388;2023-04-08T06:34:47;95760.41;;;9.03;77.25
19590;BME280;12231;42.782;23.388;2023-04-08T06:37:12;95755.91;;;8.91;76.97
19590;BME280;12231;42.782;23.388;2023-04-08T06:39:38;95767.16;;;8.88;77.63
19590;BME280;12231;42.782;23.388;2023-04-08T06:42:03;95762.47;;;8.96;76.76
19590;BME280;12231;42.782;23.388;2023-04-08T06:44:29;95769.34;;;9.13;75.29
19590;BME280;12231;42.782;23.388;2023-04-08T06:46:54;95760.44;;;9.35;74.47
19590;BME280;12231;42.782;23.388;2023-04-08T06:49:20;95754.56;;;9.64;73.58
19590;BME280;12231;42.782;23.388;2023-04-08T06:51:45;95763.16;;;9.81;73.57
19590;BME280;12231;42.782;23.388;2023-04-08T06:54:11;95763.97;;;9.81;72.24
19590;BME280;12231;42.782;23.388;2023-04-08T06:56:36;95767.53;;;9.63;74.49
19590;BME280;12231;42.782;23.388;2023-04-08T06:59:02;95771.22;;;9.42;75.56
19590;BME280;12231;42.782;23.388;2023-04-08T07:01:28;95769.31;;;9.45;76.99
19590;BME280;12231;42.782;23.388;2023-04-08T07:03:54;95772.38;;;8.87;78.93
19590;BME280;12231;42.782;23.388;2023-04-08T07:06:19;95771.66;;;8.68;80.23
19590;BME280;12231;42.782;23.388;2023-04-08T07:08:45;95773.84;;;8.58;81.18
19590;BME280;12231;42.782;23.388;2023-04-08T07:11:10;95771.41;;;8.38;82.31
19590;BME280;12231;42.782;23.388;2023-04-08T07:13:36;95776.50;;;8.57;82.73
19590;BME280;12231;42.782;23.388;2023-04-08T07:16:01;95777.53;;;8.53;82.95
19590;BME280;12231;42.782;23.388;2023-04-08T07:18:27;95777.00;;;8.46;83.33
19590;BME280;12231;42.782;23.388;2023-04-08T07:20:52;95776.91;;;8.48;85.20
19590;BME280;12231;42.782;23.388;2023-04-08T07:23:18;95778.16;;;8.75;85.22
19590;BME280;12231;42.782;23.388;2023-04-08T07:25:44;95773.66;;;8.95;82.92
19590;BME280;12231;42.782;23.388;2023-04-08T07:28:10;95788.06;;;8.99;81.78
19590;BME280;12231;42.782;23.388;2023-04-08T07:30:36;95782.09;;;9.14;81.43
19590;BME280;12231;42.782;23.388;2023-04-08T07:33:01;95783.47;;;9.04;81.48
19590;BME280;12231;42.782;23.388;2023-04-08T07:35:27;95782.34;;;9.10;81.84
19590;BME280;12231;42.782;23.388;2023-04-08T07:37:53;95782.16;;;9.30;81.66
19590;BME280;12231;42.782;23.388;2023-04-08T07:40:19;95790.75;;;9.13;81.32
19590;BME280;12231;42.782;23.388;2023-04-08T07:42:45;95789.41;;;8.89;82.88
19590;BME280;12231;42.782;23.388;2023-04-08T07:45:10;95792.03;;;9.05;81.99
19590;BME280;12231;42.782;23.388;2023-04-08T07:47:36;95794.00;;;9.00;81.52
19590;BME280;12231;42.782;23.388;2023-04-08T07:50:02;95792.78;;;9.07;80.19
19590;BME280;12231;42.782;23.388;2023-04-08T07:52:31;95798.13;;;9.36;81.41
19590;BME280;12231;42.782;23.388;2023-04-08T07:54:56;95806.69;;;9.20;79.89
19590;BME280;12231;42.782;23.388;2023-04-08T07:57:22;95801.56;;;9.35;80.26
19590;BME280;12231;42.782;23.388;2023-04-08T07:59:47;95803.59;;;9.46;80.35
19590;BME280;12231;42.782;23.388;2023-04-08T08:02:13;95811.50;;;9.43;80.19
19590;BME280;12231;42.782;23.388;2023-04-08T08:04:38;95799.94;;;9.50;80.06
19590;BME280;12231;42.782;23.388;2023-04-08T08:07:03;95804.59;;;9.43;79.67
19590;BME280;12231;42.782;23.388;2023-04-08T08:09:29;95809.53;;;9.31;80.47
19590;BME280;12231;42.782;23.388;2023-04-08T08:11:54;95806.16;;;9.79;78.88
19590;BME280;12231;42.782;23.388;2023-04-08T08:14:20;95808.69;;;10.11;78.51
19590;BME280;12231;42.782;23.388;2023-04-08T08:16:46;95805.25;;;9.95;76.83
19590;BME280;12231;42.782;23.388;2023-04-08T08:19:12;95806.19;;;10.25;76.20
19590;BME280;12231;42.782;23.388;2023-04-08T08:21:38;95812.78;;;10.60;74.56
19590;BME280;12231;42.782;23.388;2023-04-08T08:24:04;95817.69;;;10.65;73.55
19590;BME280;12231;42.782;23.388;2023-04-08T08:26:34;95822.53;;;10.85;73.20
19590;BME280;12231;42.782;23.388;2023-04-08T08:29:01;95816.31;;;10.89;72.97
19590;BME280;12231;42.782;23.388;2023-04-08T08:31:27;95815.69;;;10.70;72.67
19590;BME280;12231;42.782;23.388;2023-04-08T08:33:52;95818.50;;;10.65;73.33
19590;BME280;12231;42.782;23.388;2023-04-08T08:36:21;95822.97;;;10.77;71.63
19590;BME280;12231;42.782;23.388;2023-04-08T08:38:46;95823.66;;;10.65;73.42
19590;BME280;12231;42.782;23.388;2023-04-08T08:41:12;95824.25;;;11.00;72.15
19590;BME280;12231;42.782;23.388;2023-04-08T08:43:37;95818.88;;;11.33;71.42
19590;BME280;12231;42.782;23.388;2023-04-08T08:46:03;95817.94;;;11.34;70.40
19590;BME280;12231;42.782;23.388;2023-04-08T08:48:28;95820.78;;;11.15;70.87
19590;BME280;12231;42.782;23.388;2023-04-08T08:50:54;95816.41;;;10.87;70.33
19590;BME280;12231;42.782;23.388;2023-04-08T08:53:19;95820.34;;;11.23;71.98
19590;BME280;12231;42.782;23.388;2023-04-08T08:55:47;95818.78;;;11.34;70.81
19590;BME280;12231;42.782;23.388;2023-04-08T08:58:13;95821.34;;;11.20;71.46
19590;BME280;12231;42.782;23.388;2023-04-08T09:00:41;95816.28;;;11.19;70.72
19590;BME280;12231;42.782;23.388;2023-04-08T09:03:16;95821.06;;;11.25;71.76
19590;BME280;12231;42.782;23.388;2023-04-08T09:05:59;95822.81;;;11.10;71.09
19590;BME280;12231;42.782;23.388;2023-04-08T09:08:35;95821.06;;;11.11;72.63
19590;BME280;12231;42.782;23.388;2023-04-08T09:11:16;95822.06;;;11.08;72.28
19590;BME280;12231;42.782;23.388;2023-04-08T09:13:45;95813.16;;;10.84;73.69
19590;BME280;12231;42.782;23.388;2023-04-08T09:16:15;95826.16;;;10.96;71.97
19590;BME280;12231;42.782;23.388;2023-04-08T09:18:42;95812.78;;;10.90;72.71
19590;BME280;12231;42.782;23.388;2023-04-08T09:21:09;95813.63;;;10.90;74.86
19590;BME280;12231;42.782;23.388;2023-04-08T09:23:43;95826.34;;;10.93;73.32
19590;BME280;12231;42.782;23.388;2023-04-08T09:28:34;95821.47;;;10.89;75.77
19590;BME280;12231;42.782;23.388;2023-04-08T09:31:00;95821.88;;;10.81;74.73
19590;BME280;12231;42.782;23.388;2023-04-08T09:33:34;95813.72;;;10.89;74.82
19590;BME280;12231;42.782;23.388;2023-04-08T09:36:00;95818.81;;;10.75;73.97
19590;BME280;12231;42.782;23.388;2023-04-08T09:38:25;95820.50;;;10.76;73.55
19590;BME280;12231;42.782;23.388;2023-04-08T09:40:51;95816.78;;;10.95;74.29
19590;BME280;12231;42.782;23.388;2023-04-08T09:43:21;95808.75;;;11.44;72.30
19590;BME280;12231;42.782;23.388;2023-04-08T09:45:48;95794.84;;;11.74;71.22
19590;BME280;12231;42.782;23.388;2023-04-08T09:48:22;95804.16;;;12.31;67.99
19590;BME280;12231;42.782;23.388;2023-04-08T09:50:49;95790.50;;;12.56;67.40
19590;BME280;12231;42.782;23.388;2023-04-08T09:53:34;95791.78;;;12.63;64.06
19590;BME280;12231;42.782;23.388;2023-04-08T09:56:06;95785.94;;;13.50;62.03
19590;BME280;12231;42.782;23.388;2023-04-08T09:58:41;95783.03;;;13.42;59.88
19590;BME280;12231;42.782;23.388;2023-04-08T10:01:13;95789.53;;;14.34;58.38
19590;BME280;12231;42.782;23.388;2023-04-08T10:03:46;95777.09;;;14.27;56.90
19590;BME280;12231;42.782;23.388;2023-04-08T10:06:12;95768.34;;;14.40;56.50
19590;BME280;12231;42.782;23.388;2023-04-08T10:08:40;95768.06;;;14.20;58.35
19590;BME280;12231;42.782;23.388;2023-04-08T10:11:06;95768.56;;;14.61;58.37
19590;BME280;12231;42.782;23.388;2023-04-08T10:13:32;95771.19;;;14.12;56.55
19590;BME280;12231;42.782;23.388;2023-04-08T10:16:17;95745.97;;;13.91;57.68
19590;BME280;12231;42.782;23.388;2023-04-08T10:18:43;95760.44;;;14.06;58.33
19590;BME280;12231;42.782;23.388;2023-04-08T10:24:00;95758.13;;;13.77;55.88
19590;BME280;12231;42.782;23.388;2023-04-08T10:31:50;95750.41;;;13.27;57.92
19590;BME280;12231;42.782;23.388;2023-04-08T10:34:20;95750.84;;;12.82;57.28
19590;BME280;12231;42.782;23.388;2023-04-08T10:36:47;95748.13;;;13.23;57.33
19590;BME280;12231;42.782;23.388;2023-04-08T10:39:13;95733.28;;;13.50;56.97
19590;BME280;12231;42.782;23.388;2023-04-08T10:41:43;95741.63;;;13.91;55.56
19590;BME280;12231;42.782;23.388;2023-04-08T10:44:16;95731.22;;;13.55;57.38
19590;BME280;12231;42.782;23.388;2023-04-08T10:46:43;95734.25;;;13.36;57.02
19590;BME280;12231;42.782;23.388;2023-04-08T10:49:08;95725.75;;;13.59;57.32
19590;BME280;12231;42.782;23.388;2023-04-08T10:51:34;95736.88;;;13.85;51.47
19590;BME280;12231;42.782;23.388;2023-04-08T10:56:32;95725.13;;;13.92;53.42
19590;BME280;12231;42.782;23.388;2023-04-08T10:59:01;95717.81;;;13.73;55.01
19590;BME280;12231;42.782;23.388;2023-04-08T11:01:37;95735.06;;;13.37;56.43
19590;BME280;12231;42.782;23.388;2023-04-08T11:04:10;95728.63;;;13.55;56.89
19590;BME280;12231;42.782;23.388;2023-04-08T11:06:36;95726.44;;;13.61;55.31
19590;BME280;12231;42.782;23.388;2023-04-08T11:09:02;95702.41;;;13.96;53.26
19590;BME280;12231;42.782;23.388;2023-04-08T11:11:29;95703.09;;;14.10;56.02
19590;BME280;12231;42.782;23.388;2023-04-08T11:13:55;95699.59;;;14.35;55.14
19590;BME280;12231;42.782;23.388;2023-04-08T11:16:21;95696.25;;;14.56;51.13
19590;BME280;12231;42.782;23.388;2023-04-08T11:18:47;95685.63;;;15.05;50.37
19590;BME280;12231;42.782;23.388;2023-04-08T11:21:14;95678.94;;;15.02;52.21
19590;BME280;12231;42.782;23.388;2023-04-08T11:23:41;95687.75;;;14.89;49.79
19590;BME280;12231;42.782;23.388;2023-04-08T11:26:06;95672.91;;;15.13;48.81
19590;BME280;12231;42.782;23.388;2023-04-08T11:28:33;95674.34;;;15.17;49.08
19590;BME280;12231;42.782;23.388;2023-04-08T11:30:59;95670.63;;;14.86;51.64
19590;BME280;12231;42.782;23.388;2023-04-08T11:33:30;95676.78;;;14.51;48.85
19590;BME280;12231;42.782;23.388;2023-04-08T11:35:56;95682.38;;;14.34;48.48
19590;BME280;12231;42.782;23.388;2023-04-08T11:38:23;95661.38;;;14.26;50.60
19590;BME280;12231;42.782;23.388;2023-04-08T11:40:53;95662.72;;;14.19;50.38
19590;BME280;12231;42.782;23.388;2023-04-08T11:43:18;95658.44;;;14.07;51.38
19590;BME280;12231;42.782;23.388;2023-04-08T11:45:44;95653.13;;;14.32;48.50
19590;BME280;12231;42.782;23.388;2023-04-08T11:48:10;95660.00;;;14.20;50.93
19590;BME280;12231;42.782;23.388;2023-04-08T11:50:36;95654.94;;;14.19;52.92
19590;BME280;12231;42.782;23.388;2023-04-08T11:53:01;95658.97;;;14.23;49.26
19590;BME280;12231;42.782;23.388;2023-04-08T11:55:31;95642.00;;;14.42;51.61
19590;BME280;12231;42.782;23.388;2023-04-08T11:58:04;95644.25;;;14.47;49.57
19590;BME280;12231;42.782;23.388;2023-04-08T12:00:30;95643.50;;;14.79;51.32
19590;BME280;12231;42.782;23.388;2023-04-08T12:02:57;95648.75;;;14.67;50.79
19590;BME280;12231;42.782;23.388;2023-04-08T12:05:23;95655.03;;;14.86;49.52
19590;BME280;12231;42.782;23.388;2023-04-08T12:07:48;95647.09;;;14.66;46.89
19590;BME280;12231;42.782;23.388;2023-04-08T12:10:13;95637.22;;;14.82;48.08
19590;BME280;12231;42.782;23.388;2023-04-08T12:12:39;95635.97;;;15.09;48.72
19590;BME280;12231;42.782;23.388;2023-04-08T12:15:06;95636.88;;;14.75;48.58
19590;BME280;12231;42.782;23.388;2023-04-08T12:17:34;95626.53;;;15.08;49.89
19590;BME280;12231;42.782;23.388;2023-04-08T12:20:00;95637.97;;;15.06;48.40
19590;BME280;12231;42.782;23.388;2023-04-08T12:22:26;95634.53;;;15.28;44.47
19590;BME280;12231;42.782;23.388;2023-04-08T12:24:51;95635.28;;;15.41;45.49
19590;BME280;12231;42.782;23.388;2023-04-08T12:27:17;95625.22;;;14.81;47.77
19590;BME280;12231;42.782;23.388;2023-04-08T12:29:42;95634.78;;;14.46;48.24
19590;BME280;12231;42.782;23.388;2023-04-08T12:32:08;95638.53;;;14.31;49.42
19590;BME280;12231;42.782;23.388;2023-04-08T12:34:33;95626.31;;;14.20;50.72
19590;BME280;12231;42.782;23.388;2023-04-08T12:36:59;95631.75;;;13.94;53.52
19590;BME280;12231;42.782;23.388;2023-04-08T12:39:24;95637.09;;;14.03;54.77
19590;BME280;12231;42.782;23.388;2023-04-08T12:41:50;95640.84;;;13.63;53.85
19590;BME280;12231;42.782;23.388;2023-04-08T12:44:15;95623.41;;;13.54;54.79
19590;BME280;12231;42.782;23.388;2023-04-08T12:46:41;95626.94;;;13.76;54.47
19590;BME280;12231;42.782;23.388;2023-04-08T12:49:06;95624.78;;;13.70;53.04
19590;BME280;12231;42.782;23.388;2023-04-08T12:51:33;95616.97;;;13.59;53.71
19590;BME280;12231;42.782;23.388;2023-04-08T12:53:58;95622.03;;;13.25;53.35
19590;BME280;12231;42.782;23.388;2023-04-08T12:56:25;95624.75;;;13.59;53.15
19590;BME280;12231;42.782;23.388;2023-04-08T12:58:51;95620.13;;;13.63;51.81
19590;BME280;12231;42.782;23.388;2023-04-08T13:01:16;95609.88;;;13.74;52.12
19590;BME280;12231;42.782;23.388;2023-04-08T13:03:42;95623.91;;;13.59;54.08
19590;BME280;12231;42.782;23.388;2023-04-08T13:06:07;95621.78;;;14.00;54.77
19590;BME280;12231;42.782;23.388;2023-04-08T13:08:32;95624.44;;;14.22;55.87
19590;BME280;12231;42.782;23.388;2023-04-08T13:10:58;95623.09;;;13.82;53.46